createdAt,value
2018-05-24T00:00:38.247Z,72.80
2018-05-24T00:03:06.956Z,72.80
2018-05-24T00:05:35.250Z,72.60
2018-05-24T00:08:03.641Z,72.60
2018-05-24T00:10:32.242Z,72.60
2018-05-24T00:13:01.294Z,72.60
2018-05-24T00:15:29.582Z,72.70
2018-05-24T00:17:58.188Z,72.40
2018-05-24T00:20:26.711Z,72.20
2018-05-24T00:22:54.988Z,72.40
2018-05-24T00:25:23.310Z,72.60
2018-05-24T00:27:51.895Z,72.70
2018-05-24T00:30:20.181Z,72.80
2018-05-24T00:32:48.459Z,72.80
2018-05-24T00:35:17.004Z,72.90
2018-05-24T00:37:46.048Z,72.30
2018-05-24T00:40:14.470Z,72.20
2018-05-24T00:42:42.754Z,72.50
2018-05-24T00:45:11.031Z,72.40
2018-05-24T00:47:39.349Z,72.70
2018-05-24T00:50:07.638Z,72.80
2018-05-24T00:52:35.929Z,73.50
2018-05-24T00:55:16.322Z,73.60
2018-05-24T00:57:44.673Z,73.90
2018-05-24T01:00:13.357Z,73.70
2018-05-24T01:02:41.665Z,73.70
2018-05-24T01:05:09.948Z,73.50
2018-05-24T01:07:38.256Z,73.80
2018-05-24T01:10:08.269Z,74.10
2018-05-24T01:12:36.557Z,74.00
2018-05-24T01:15:04.846Z,74.50
2018-05-24T01:17:33.165Z,75.10
2018-05-24T01:20:01.852Z,75.70
2018-05-24T01:22:30.206Z,75.70
2018-05-24T01:24:58.485Z,76.00
2018-05-24T01:27:26.887Z,75.30
2018-05-24T01:29:55.177Z,75.50
2018-05-24T01:32:23.491Z,76.20
2018-05-24T01:34:51.878Z,76.70
2018-05-24T01:37:32.152Z,76.90
2018-05-24T01:40:00.473Z,77.40
2018-05-24T01:42:29.563Z,77.70
2018-05-24T01:44:57.853Z,77.70
2018-05-24T01:47:26.551Z,77.50
2018-05-24T01:49:54.924Z,77.40
2018-05-24T01:52:23.212Z,77.10
2018-05-24T01:54:51.612Z,77.00
2018-05-24T01:57:19.889Z,76.70
2018-05-24T01:59:48.289Z,76.70
2018-05-24T02:02:16.595Z,76.40
2018-05-24T02:04:45.681Z,77.00
2018-05-24T02:07:14.024Z,77.00
2018-05-24T02:09:42.385Z,77.10
2018-05-24T02:12:10.683Z,77.10
2018-05-24T02:14:40.186Z,77.40
2018-05-24T02:17:08.560Z,77.40
2018-05-24T02:19:36.849Z,77.60
2018-05-24T02:22:05.195Z,77.70
2018-05-24T02:24:33.485Z,77.70
2018-05-24T02:27:01.765Z,78.00
2018-05-24T02:29:30.333Z,77.90
2018-05-24T02:31:58.669Z,78.10
2018-05-24T02:34:26.954Z,78.50
2018-05-24T02:36:55.293Z,78.80
2018-05-24T02:39:23.873Z,78.90
2018-05-24T02:41:52.158Z,79.50
2018-05-24T02:44:20.473Z,80.50
2018-05-24T02:46:48.853Z,79.80
2018-05-24T02:49:17.144Z,79.70
2018-05-24T02:51:45.841Z,79.80
2018-05-24T02:54:14.141Z,81.20
2018-05-24T02:56:42.416Z,81.00
2018-05-24T02:59:10.822Z,81.00
2018-05-24T03:01:39.249Z,81.70
2018-05-24T03:04:07.543Z,81.70
2018-05-24T03:06:35.865Z,81.10
2018-05-24T03:09:04.197Z,81.40
2018-05-24T03:11:33.278Z,81.70
2018-05-24T03:14:01.680Z,81.60
2018-05-24T03:16:30.013Z,82.20
2018-05-24T03:18:58.345Z,82.30
2018-05-24T03:21:26.641Z,82.10
2018-05-24T03:23:56.670Z,82.00
2018-05-24T03:26:25.066Z,81.90
2018-05-24T03:28:53.458Z,81.60
2018-05-24T03:31:23.282Z,81.90
2018-05-24T03:33:51.670Z,81.80
2018-05-24T03:36:20.046Z,81.20
2018-05-24T03:38:48.765Z,79.90
2018-05-24T03:41:17.064Z,80.00
2018-05-24T03:43:46.861Z,76.00
2018-05-24T03:46:15.194Z,75.90
2018-05-24T03:48:44.254Z,68.10
2018-05-24T03:51:12.540Z,67.80
2018-05-24T03:53:40.876Z,64.40
2018-05-24T03:56:09.161Z,62.50
2018-05-24T03:58:37.516Z,64.70
2018-05-24T04:01:18.013Z,66.60
2018-05-24T04:03:49.093Z,65.30
2018-05-24T04:06:18.385Z,68.70
2018-05-24T04:08:48.187Z,70.90
2018-05-24T04:11:16.478Z,70.80
2018-05-24T04:13:44.793Z,71.80
2018-05-24T04:16:13.086Z,72.20
2018-05-24T04:18:41.364Z,73.40
2018-05-24T04:21:09.693Z,73.40
2018-05-24T04:23:38.797Z,72.70
2018-05-24T04:26:07.854Z,73.40
2018-05-24T04:28:36.128Z,73.40
2018-05-24T04:31:04.453Z,74.10
2018-05-24T04:33:32.734Z,74.60
2018-05-24T04:36:01.069Z,74.30
2018-05-24T04:38:30.122Z,74.10
2018-05-24T04:40:58.410Z,74.10
2018-05-24T04:43:26.727Z,73.90
2018-05-24T04:45:55.197Z,74.50
2018-05-24T04:48:23.538Z,73.90
2018-05-24T04:50:52.629Z,73.60
2018-05-24T04:53:21.682Z,73.80
2018-05-24T04:55:49.961Z,73.80
2018-05-24T04:58:18.409Z,73.00
2018-05-24T05:00:46.684Z,73.60
2018-05-24T05:03:15.778Z,74.90
2018-05-24T05:05:44.077Z,74.90
2018-05-24T05:08:12.360Z,74.70
2018-05-24T05:10:40.680Z,74.90
2018-05-24T05:13:09.054Z,74.60
2018-05-24T05:15:38.881Z,75.00
2018-05-24T05:18:09.209Z,74.60
2018-05-24T05:20:37.494Z,74.60
2018-05-24T05:23:05.899Z,75.40
2018-05-24T05:25:34.490Z,74.50
2018-05-24T05:28:03.241Z,74.00
2018-05-24T05:30:31.574Z,74.10
2018-05-24T05:32:59.864Z,73.90
2018-05-24T05:35:28.267Z,74.30
2018-05-24T05:37:56.551Z,75.00
2018-05-24T05:40:24.936Z,74.30
2018-05-24T05:42:53.332Z,75.20
2018-05-24T05:45:21.612Z,74.10
2018-05-24T05:47:49.933Z,73.30
2018-05-24T05:50:18.986Z,74.00
2018-05-24T05:52:47.325Z,74.00
2018-05-24T05:55:15.622Z,74.20
2018-05-24T05:57:44.706Z,73.40
2018-05-24T06:00:13.042Z,73.40
2018-05-24T06:02:41.335Z,73.30
2018-05-24T06:05:09.613Z,73.70
2018-05-24T06:07:37.960Z,73.90
2018-05-24T06:10:06.666Z,72.40
2018-05-24T06:12:35.707Z,72.20
2018-05-24T06:15:04.756Z,73.00
2018-05-24T06:17:33.081Z,73.00
2018-05-24T06:20:01.406Z,72.10
2018-05-24T06:22:29.738Z,72.60
2018-05-24T06:24:58.025Z,73.00
2018-05-24T06:27:26.347Z,71.80
2018-05-24T06:29:54.674Z,72.80
2018-05-24T06:32:22.998Z,71.30
2018-05-24T06:34:51.289Z,71.20
2018-05-24T06:37:21.159Z,71.40
2018-05-24T06:39:49.421Z,71.30
2018-05-24T06:42:17.746Z,70.50
2018-05-24T06:44:46.090Z,71.10
2018-05-24T06:47:14.481Z,70.30
2018-05-24T06:49:42.779Z,71.00
2018-05-24T06:52:11.152Z,69.60
2018-05-24T06:54:39.489Z,69.60
2018-05-24T06:57:08.543Z,70.50
2018-05-24T06:59:36.948Z,70.40
2018-05-24T07:02:05.230Z,69.10
2018-05-24T07:04:33.511Z,71.70
2018-05-24T07:07:01.829Z,71.80
2018-05-24T07:09:30.205Z,72.40
2018-05-24T07:11:58.524Z,71.70
2018-05-24T07:14:27.611Z,70.80
2018-05-24T07:16:55.932Z,70.60
2018-05-24T07:19:25.000Z,70.40
2018-05-24T07:21:53.318Z,70.30
2018-05-24T07:24:22.374Z,70.50
2018-05-24T07:26:50.788Z,70.40
2018-05-24T07:29:19.181Z,70.40
2018-05-24T07:31:48.971Z,69.20
2018-05-24T07:34:17.298Z,69.80
2018-05-24T07:36:45.590Z,70.10
2018-05-24T07:39:15.513Z,69.70
2018-05-24T07:41:45.749Z,69.40
2018-05-24T07:44:14.034Z,69.40
2018-05-24T07:46:42.322Z,69.90
2018-05-24T07:49:10.640Z,71.00
2018-05-24T07:51:39.694Z,70.20
2018-05-24T07:54:08.028Z,70.20
2018-05-24T07:56:36.308Z,69.40
2018-05-24T07:59:04.594Z,69.20
2018-05-24T08:01:34.459Z,67.20
2018-05-24T08:04:02.805Z,67.10
2018-05-24T08:06:31.099Z,66.20
2018-05-24T08:08:59.390Z,66.40
2018-05-24T08:11:27.721Z,67.10
2018-05-24T08:13:56.001Z,65.80
2018-05-24T08:16:24.324Z,65.10
2018-05-24T08:18:52.657Z,65.70
2018-05-24T08:21:20.981Z,65.30
2018-05-24T08:23:49.325Z,64.40
2018-05-24T08:26:17.618Z,64.70
2018-05-24T08:28:45.955Z,64.20
2018-05-24T08:31:14.236Z,63.50
2018-05-24T08:33:42.520Z,62.50
2018-05-24T08:36:10.874Z,63.50
2018-05-24T08:38:39.160Z,61.80
2018-05-24T08:41:07.489Z,63.20
2018-05-24T08:43:35.778Z,61.50
2018-05-24T08:46:04.850Z,62.40
2018-05-24T08:48:33.178Z,62.40
2018-05-24T08:51:01.515Z,62.40
2018-05-24T08:53:30.101Z,61.20
2018-05-24T08:55:59.816Z,61.70
2018-05-24T08:58:28.107Z,60.90
2018-05-24T09:00:56.433Z,60.00
2018-05-24T09:03:24.808Z,59.40
2018-05-24T09:05:53.313Z,59.50
2018-05-24T09:08:22.372Z,58.50
2018-05-24T09:10:50.704Z,58.00
2018-05-24T09:13:20.538Z,56.90
2018-05-24T09:15:48.824Z,56.30
2018-05-24T09:18:17.169Z,56.40
2018-05-24T09:20:45.448Z,55.80
2018-05-24T09:23:13.737Z,55.90
2018-05-24T09:25:42.066Z,55.70
2018-05-24T09:28:10.385Z,55.20
2018-05-24T09:30:40.065Z,56.10
2018-05-24T09:33:08.359Z,56.90
2018-05-24T09:35:36.670Z,56.80
2018-05-24T09:38:05.003Z,58.10
2018-05-24T09:40:33.289Z,58.60
2018-05-24T09:43:01.622Z,58.80
2018-05-24T09:45:29.917Z,59.10
2018-05-24T09:47:58.312Z,59.20
2018-05-24T09:50:26.589Z,59.70
2018-05-24T09:52:54.877Z,58.30
2018-05-24T09:55:23.331Z,58.80
2018-05-24T09:57:51.521Z,57.60
2018-05-24T10:00:23.688Z,57.60
2018-05-24T10:02:52.737Z,57.50
2018-05-24T10:05:21.159Z,57.50
2018-05-24T10:07:49.445Z,57.50
2018-05-24T10:10:17.781Z,56.80
2018-05-24T10:12:46.065Z,57.00
2018-05-24T10:15:14.395Z,56.40
2018-05-24T10:17:42.682Z,55.90
2018-05-24T10:20:11.397Z,55.30
2018-05-24T10:22:39.676Z,55.20
2018-05-24T10:25:07.965Z,53.60
2018-05-24T10:27:36.365Z,54.90
2018-05-24T10:30:04.663Z,52.60
2018-05-24T10:32:32.986Z,53.00
2018-05-24T10:35:02.068Z,51.50
2018-05-24T10:37:30.348Z,51.50
2018-05-24T10:39:58.828Z,50.90
2018-05-24T10:42:27.112Z,51.70
2018-05-24T10:44:55.392Z,52.20
2018-05-24T10:47:23.722Z,51.00
2018-05-24T10:49:52.778Z,52.30
2018-05-24T10:52:21.070Z,51.70
2018-05-24T10:54:49.397Z,51.80
2018-05-24T10:57:17.681Z,52.80
2018-05-24T10:59:46.010Z,52.60
2018-05-24T11:02:14.357Z,52.40
2018-05-24T11:04:42.652Z,52.20
2018-05-24T11:07:10.934Z,52.10
2018-05-24T11:09:39.256Z,50.70
2018-05-24T11:12:08.314Z,49.70
2018-05-24T11:14:36.734Z,49.70
2018-05-24T11:17:06.548Z,49.00
2018-05-24T11:19:34.882Z,48.90
2018-05-24T11:22:03.173Z,49.80
2018-05-24T11:24:31.523Z,49.20
2018-05-24T11:26:59.817Z,48.80
2018-05-24T11:29:28.097Z,48.60
2018-05-24T11:31:56.522Z,48.20
2018-05-24T11:34:24.733Z,50.30
2018-05-24T11:36:53.018Z,49.50
2018-05-24T11:39:22.342Z,48.90
2018-05-24T11:41:50.650Z,48.40
2018-05-24T11:44:18.973Z,47.20
2018-05-24T11:46:47.355Z,47.00
2018-05-24T11:49:15.645Z,47.80
2018-05-24T11:51:44.337Z,49.20
2018-05-24T11:54:12.622Z,47.60
2018-05-24T11:56:41.008Z,46.50
2018-05-24T11:59:09.341Z,48.40
2018-05-24T12:01:38.405Z,48.60
2018-05-24T12:04:06.722Z,48.60
2018-05-24T12:06:35.813Z,48.50
2018-05-24T12:09:04.101Z,48.20
2018-05-24T12:11:32.429Z,47.50
2018-05-24T12:14:00.716Z,47.30
2018-05-24T12:16:29.781Z,46.70
2018-05-24T12:18:58.182Z,46.50
2018-05-24T12:21:26.877Z,47.10
2018-05-24T12:23:55.169Z,46.30
2018-05-24T12:26:23.450Z,46.50
2018-05-24T12:28:52.769Z,47.00
2018-05-24T12:31:21.161Z,47.30
2018-05-24T12:33:49.561Z,46.20
2018-05-24T12:36:18.652Z,46.00
2018-05-24T12:38:47.049Z,46.00
2018-05-24T12:41:15.369Z,46.30
2018-05-24T12:43:44.450Z,46.10
2018-05-24T12:46:12.766Z,46.10
2018-05-24T12:48:41.949Z,46.50
2018-05-24T12:51:10.350Z,46.40
2018-05-24T12:53:38.622Z,45.80
2018-05-24T12:56:07.309Z,45.60
2018-05-24T12:58:35.608Z,45.10
2018-05-24T13:01:03.897Z,46.40
2018-05-24T13:03:32.217Z,45.00
2018-05-24T13:06:01.309Z,45.60
2018-05-24T13:08:29.628Z,45.60
2018-05-24T13:10:58.706Z,44.60
2018-05-24T13:13:26.992Z,44.60
2018-05-24T13:15:56.289Z,43.90
2018-05-24T13:18:26.201Z,44.50
2018-05-24T13:20:54.517Z,44.50
2018-05-24T13:23:22.837Z,44.10
2018-05-24T13:25:51.889Z,44.90
2018-05-24T13:28:20.520Z,44.90
2018-05-24T13:30:48.982Z,44.00
2018-05-24T13:33:17.205Z,44.40
2018-05-24T13:35:45.582Z,44.30
2018-05-24T13:38:15.411Z,45.50
2018-05-24T13:40:43.796Z,45.50
2018-05-24T13:43:12.886Z,43.60
2018-05-24T13:45:41.170Z,43.60
2018-05-24T13:48:09.490Z,43.60
2018-05-24T13:50:37.783Z,44.30
2018-05-24T13:53:06.165Z,45.00
2018-05-24T13:55:34.490Z,44.20
2018-05-24T13:58:03.589Z,44.70
2018-05-24T14:00:32.641Z,44.70
2018-05-24T14:03:00.967Z,44.70
2018-05-24T14:05:29.525Z,44.60
2018-05-24T14:07:57.854Z,43.10
2018-05-24T14:10:26.178Z,43.50
2018-05-24T14:12:54.504Z,43.40
2018-05-24T14:15:22.808Z,43.80
2018-05-24T14:17:51.097Z,44.20
2018-05-24T14:20:19.418Z,43.60
2018-05-24T14:22:48.509Z,43.40
2018-05-24T14:25:16.792Z,43.30
2018-05-24T14:27:45.887Z,43.10
2018-05-24T14:30:14.597Z,43.70
2018-05-24T14:32:42.989Z,43.40
2018-05-24T14:35:11.284Z,42.80
2018-05-24T14:37:39.765Z,41.70
2018-05-24T14:40:08.053Z,42.10
2018-05-24T14:42:36.336Z,40.90
2018-05-24T14:45:04.663Z,41.50
2018-05-24T14:47:33.333Z,41.30
2018-05-24T14:50:02.623Z,42.40
2018-05-24T14:52:30.913Z,41.90
2018-05-24T14:54:59.238Z,41.30
2018-05-24T14:57:27.923Z,41.60
2018-05-24T14:59:56.311Z,40.70
2018-05-24T15:02:24.651Z,40.00
2018-05-24T15:04:53.001Z,38.80
2018-05-24T15:07:21.393Z,38.90
2018-05-24T15:09:49.713Z,38.00
2018-05-24T15:12:18.766Z,34.30
2018-05-24T15:14:47.079Z,34.20
2018-05-24T15:17:15.471Z,33.20
2018-05-24T15:19:43.786Z,34.50
2018-05-24T15:22:12.961Z,35.70
2018-05-24T15:24:41.245Z,35.60
2018-05-24T15:27:09.546Z,35.00
2018-05-24T15:29:37.865Z,33.90
2018-05-24T15:32:06.919Z,36.70
2018-05-24T15:34:35.437Z,36.70
2018-05-24T15:37:03.721Z,36.70
2018-05-24T15:39:32.006Z,37.80
2018-05-24T15:42:00.409Z,39.60
2018-05-24T15:44:28.728Z,38.70
2018-05-24T15:46:57.809Z,34.30
2018-05-24T15:49:26.297Z,34.30
2018-05-24T15:51:54.576Z,32.80
2018-05-24T15:54:23.676Z,33.20
2018-05-24T15:56:51.995Z,33.20
2018-05-24T15:59:20.266Z,34.60
2018-05-24T16:01:48.661Z,34.70
2018-05-24T16:04:17.052Z,36.50
2018-05-24T16:06:45.341Z,34.20
2018-05-24T16:09:13.656Z,33.70
2018-05-24T16:11:42.713Z,33.00
2018-05-24T16:14:11.045Z,32.90
2018-05-24T16:16:39.430Z,33.00
2018-05-24T16:19:07.740Z,34.10
2018-05-24T16:21:36.822Z,33.00
2018-05-24T16:24:06.617Z,34.50
2018-05-24T16:26:35.037Z,34.50
2018-05-24T16:29:03.329Z,35.10
2018-05-24T16:31:31.650Z,34.90
2018-05-24T16:34:00.783Z,34.20
2018-05-24T16:36:29.073Z,34.80
2018-05-24T16:38:57.613Z,33.10
2018-05-24T16:41:25.901Z,33.50
2018-05-24T16:43:54.185Z,32.90
2018-05-24T16:46:22.517Z,32.00
2018-05-24T16:48:51.074Z,33.20
2018-05-24T16:51:19.355Z,34.40
2018-05-24T16:53:47.638Z,35.30
2018-05-24T16:56:16.347Z,36.50
2018-05-24T16:58:44.633Z,40.00
2018-05-24T17:01:12.929Z,40.70
2018-05-24T17:03:41.409Z,42.20
2018-05-24T17:06:09.717Z,41.30
2018-05-24T17:08:38.005Z,42.00
2018-05-24T17:11:06.706Z,43.10
2018-05-24T17:13:34.988Z,43.00
2018-05-24T17:16:04.781Z,43.80
2018-05-24T17:18:33.101Z,43.80
2018-05-24T17:21:01.426Z,42.40
2018-05-24T17:23:30.485Z,43.70
2018-05-24T17:25:58.803Z,43.60
2018-05-24T17:28:27.197Z,43.50
2018-05-24T17:30:56.285Z,43.90
2018-05-24T17:33:24.606Z,43.40
2018-05-24T17:35:53.712Z,43.70
2018-05-24T17:38:23.202Z,44.20
2018-05-24T17:40:51.493Z,44.10
2018-05-24T17:43:19.785Z,43.20
2018-05-24T17:45:48.099Z,43.80
2018-05-24T17:48:17.155Z,44.20
2018-05-24T17:50:45.432Z,44.10
2018-05-24T17:53:13.744Z,44.10
2018-05-24T17:55:42.163Z,43.80
2018-05-24T17:58:10.537Z,43.80
2018-05-24T18:00:38.819Z,43.60
2018-05-24T18:03:07.143Z,43.10
2018-05-24T18:05:36.196Z,43.50
2018-05-24T18:08:04.513Z,43.50
2018-05-24T18:10:34.336Z,45.10
2018-05-24T18:13:02.842Z,45.10
2018-05-24T18:15:31.120Z,44.80
2018-05-24T18:17:59.409Z,45.20
2018-05-24T18:20:27.728Z,45.90
2018-05-24T18:22:57.882Z,45.90
2018-05-24T18:25:26.223Z,45.90
2018-05-24T18:27:54.506Z,47.80
2018-05-24T18:30:22.838Z,46.90
2018-05-24T18:32:51.884Z,47.90
2018-05-24T18:35:20.182Z,47.80
2018-05-24T18:37:48.501Z,48.50
2018-05-24T18:40:16.876Z,47.70
2018-05-24T18:42:45.287Z,49.00
2018-05-24T18:45:13.762Z,48.70
2018-05-24T18:47:42.049Z,49.60
2018-05-24T18:50:10.343Z,49.10
2018-05-24T18:52:38.666Z,49.20
2018-05-24T18:55:08.542Z,50.00
2018-05-24T18:57:37.249Z,49.90
2018-05-24T19:00:05.541Z,50.30
2018-05-24T19:02:33.830Z,50.60
2018-05-24T19:05:02.158Z,50.90
2018-05-24T19:07:31.231Z,51.10
2018-05-24T19:10:01.027Z,51.90
2018-05-24T19:12:29.758Z,51.90
2018-05-24T19:14:58.045Z,51.60
2018-05-24T19:17:26.333Z,52.00
2018-05-24T19:19:54.654Z,52.60
2018-05-24T19:22:23.770Z,52.70
2018-05-24T19:24:52.062Z,52.70
2018-05-24T19:27:20.352Z,52.90
2018-05-24T19:29:48.697Z,53.40
2018-05-24T19:32:17.784Z,53.60
2018-05-24T19:34:46.080Z,53.60
2018-05-24T19:37:14.380Z,53.40
2018-05-24T19:39:42.790Z,54.00
2018-05-24T19:42:11.073Z,54.20
2018-05-24T19:44:39.374Z,54.80
2018-05-24T19:47:08.565Z,55.70
2018-05-24T19:49:36.854Z,55.70
2018-05-24T19:52:06.681Z,56.00
2018-05-24T19:54:34.969Z,55.90
2018-05-24T19:57:03.259Z,56.20
2018-05-24T19:59:31.590Z,56.20
2018-05-24T20:02:00.652Z,57.00
2018-05-24T20:04:29.038Z,56.90
2018-05-24T20:06:57.413Z,57.00
2018-05-24T20:09:25.725Z,56.80
2018-05-24T20:11:54.149Z,57.10
2018-05-24T20:14:23.212Z,57.80
2018-05-24T20:16:51.853Z,57.70
2018-05-24T20:19:20.949Z,58.60
2018-05-24T20:21:49.252Z,58.50
2018-05-24T20:24:18.361Z,58.70
2018-05-24T20:26:47.474Z,59.00
2018-05-24T20:29:16.626Z,61.50
2018-05-24T20:31:44.932Z,61.50
2018-05-24T20:34:13.277Z,63.70
2018-05-24T20:36:41.647Z,64.20
2018-05-24T20:39:10.756Z,64.10
2018-05-24T20:41:39.833Z,64.90
2018-05-24T20:44:09.649Z,65.80
2018-05-24T20:46:37.984Z,65.10
2018-05-24T20:49:07.052Z,64.70
2018-05-24T20:51:35.357Z,64.70
2018-05-24T20:54:03.762Z,64.90
2018-05-24T20:56:32.828Z,64.00
2018-05-24T20:59:01.158Z,64.00
2018-05-24T21:01:30.266Z,64.40
2018-05-24T21:03:59.342Z,64.50
2018-05-24T21:06:27.693Z,63.80
2018-05-24T21:08:56.001Z,64.10
2018-05-24T21:11:24.313Z,63.80
2018-05-24T21:13:52.783Z,64.10
2018-05-24T21:16:21.068Z,64.30
2018-05-24T21:18:49.368Z,64.30
2018-05-24T21:21:17.813Z,64.40
2018-05-24T21:23:46.924Z,65.20
2018-05-24T21:26:15.998Z,65.10
2018-05-24T21:28:44.716Z,65.10
2018-05-24T21:31:13.025Z,65.60
2018-05-24T21:33:42.124Z,65.20
2018-05-24T21:36:11.332Z,65.00
2018-05-24T21:38:40.401Z,64.80
2018-05-24T21:41:08.730Z,64.70
2018-05-24T21:43:37.841Z,65.40
2018-05-24T21:46:06.953Z,65.80
2018-05-24T21:48:36.157Z,66.00
2018-05-24T21:51:05.234Z,66.00
2018-05-24T21:53:33.532Z,65.90
2018-05-24T21:56:01.869Z,66.50
2018-05-24T21:58:30.542Z,66.50
2018-05-24T22:00:59.617Z,67.10
2018-05-24T22:03:27.924Z,67.00
2018-05-24T22:05:56.716Z,67.40
2018-05-24T22:08:25.034Z,67.40
2018-05-24T22:10:54.131Z,67.40
2018-05-24T22:13:22.481Z,67.40
2018-05-24T22:15:50.791Z,67.40
2018-05-24T22:18:19.101Z,67.40
2018-05-24T22:20:47.436Z,67.30
2018-05-24T22:23:15.741Z,67.70
2018-05-24T22:25:44.081Z,67.60
2018-05-24T22:28:13.161Z,67.40
2018-05-24T22:30:43.021Z,67.20
2018-05-24T22:33:12.097Z,67.10
2018-05-24T22:35:40.437Z,67.00
2018-05-24T22:38:08.791Z,67.10
2018-05-24T22:40:37.874Z,67.60
2018-05-24T22:43:06.222Z,66.90
2018-05-24T22:45:34.533Z,67.00
2018-05-24T22:48:02.842Z,67.10
2018-05-24T22:50:31.365Z,66.90
2018-05-24T22:52:59.669Z,67.00
2018-05-24T22:55:28.742Z,67.30
2018-05-24T22:57:57.090Z,67.30
2018-05-24T23:00:25.419Z,67.30
2018-05-24T23:02:53.840Z,67.20
2018-05-24T23:05:23.157Z,67.60
2018-05-24T23:07:51.465Z,67.60
2018-05-24T23:10:19.772Z,68.10
2018-05-24T23:12:48.425Z,68.30
2018-05-24T23:15:16.733Z,68.70
2018-05-24T23:17:46.920Z,69.10
2018-05-24T23:20:15.261Z,69.10
2018-05-24T23:22:43.566Z,69.40
2018-05-24T23:25:11.917Z,69.40
2018-05-24T23:27:40.229Z,69.40
2018-05-24T23:30:09.337Z,69.80
2018-05-24T23:32:37.680Z,69.80
2018-05-24T23:35:06.106Z,70.20
2018-05-24T23:37:35.220Z,70.20
2018-05-24T23:40:03.550Z,70.00
2018-05-24T23:42:31.853Z,70.40
2018-05-24T23:45:00.502Z,70.50
2018-05-24T23:47:28.825Z,70.70
2018-05-24T23:49:57.233Z,71.10
2018-05-24T23:52:25.573Z,71.40
2018-05-24T23:54:54.781Z,71.30
2018-05-24T23:57:23.137Z,71.70
2018-05-24T23:59:51.448Z,71.70
